Time;durP1;ratioP1;P1;durP2;ratioP2;P2;SDS_P1;SDS_P2;PMS_P1;PMS_P2;Temp;Humidity;BMP_temperature;BMP_pressure;BME280_temperature;BME280_humidity;BME280_pressure;Samples;Min_cycle;Max_cycle;Signal;HPM_P1;HPM_P2
2023/04/05 00:00:11;;;;;;;5.45;3.17;;;;;;;;;;5056669;28;20037;-89
2023/04/05 00:02:39;;;;;;;5.82;3.13;;;;;;;;;;5021048;28;20046;-89
2023/04/05 00:05:05;;;;;;;10.10;3.65;;;;;;;;;;5020083;28;20025;-89
2023/04/05 00:07:34;;;;;;;6.72;3.90;;;;;;;;;;5055834;28;20049;-89
2023/04/05 00:10:01;;;;;;;5.53;3.35;;;;;;;;;;5040827;28;20088;-89
2023/04/05 00:12:27;;;;;;;5.53;3.60;;;;;;;;;;5041234;28;20132;-91
2023/04/05 00:14:53;;;;;;;6.13;3.75;;;;;;;;;;5039571;28;20021;-90
2023/04/05 00:17:19;;;;;;;9.35;3.70;;;;;;;;;;5040673;28;20026;-90
2023/04/05 00:19:50;;;;;;;9.05;3.90;;;;;;;;;;5040731;28;20033;-90
2023/04/05 00:22:19;;;;;;;6.50;3.90;;;;;;;;;;5040786;28;20018;-90
2023/04/05 00:24:45;;;;;;;5.55;3.67;;;;;;;;;;5040535;28;20026;-90
2023/04/05 00:27:11;;;;;;;6.57;3.92;;;;;;;;;;5052432;28;20053;-90
2023/04/05 00:29:37;;;;;;;6.25;3.65;;;;;;;;;;5058959;28;20027;-89
2023/04/05 00:32:03;;;;;;;5.20;3.53;;;;;;;;;;5041177;28;20033;-89
2023/04/05 00:34:31;;;;;;;6.32;3.58;;;;;;;;;;5040547;28;20366;-89
2023/04/05 00:36:57;;;;;;;5.72;3.45;;;;;;;;;;5039155;28;20112;-89
2023/04/05 00:39:23;;;;;;;10.65;4.35;;;;;;;;;;5040389;28;20128;-90
2023/04/05 00:41:49;;;;;;;11.10;4.97;;;;;;;;;;5059292;28;20033;-89
2023/04/05 00:44:15;;;;;;;7.18;3.65;;;;;;;;;;5060507;28;20021;-88
2023/04/05 00:49:45;;;;;;;10.15;4.43;;;;;;;;;;5040311;28;20450;-88
2023/04/05 00:52:11;;;;;;;7.60;4.10;;;;;;;;;;5040245;28;20029;-89
2023/04/05 00:54:38;;;;;;;8.65;3.95;;;;;;;;;;5040736;28;20021;-90
2023/04/05 00:57:05;;;;;;;8.00;3.90;;;;;;;;;;5054848;28;20467;-88
2023/04/05 00:59:31;;;;;;;8.45;3.72;;;;;;;;;;5047424;28;20354;-89
2023/04/05 01:02:30;;;;;;;7.15;3.58;;;;;;;;;;5044500;28;20045;-89
2023/04/05 01:05:00;;;;;;;7.15;3.75;;;;;;;;;;5059699;28;20427;-89
2023/04/05 01:07:34;;;;;;;8.43;4.10;;;;;;;;;;5058536;28;20074;-89
2023/04/05 01:10:00;;;;;;;6.38;3.22;;;;;;;;;;5059737;28;20044;-89
2023/04/05 01:12:33;;;;;;;8.32;4.25;;;;;;;;;;5058442;28;20044;-89
2023/04/05 01:15:00;;;;;;;8.10;4.40;;;;;;;;;;5042697;28;20407;-89
2023/04/05 01:17:27;;;;;;;8.82;4.07;;;;;;;;;;5055663;28;20734;-89
2023/04/05 01:19:59;;;;;;;6.88;3.88;;;;;;;;;;5048208;28;20025;-89
2023/04/05 01:22:44;;;;;;;6.90;3.67;;;;;;;;;;5039446;28;20036;-89
2023/04/05 01:25:13;;;;;;;11.75;4.35;;;;;;;;;;5039530;28;20052;-89
2023/04/05 01:27:39;;;;;;;5.93;3.08;;;;;;;;;;5038453;28;20164;-90
2023/04/05 01:33:50;;;;;;;9.15;4.07;;;;;;;;;;5039327;28;20147;-90
2023/04/05 01:36:39;;;;;;;10.18;3.95;;;;;;;;;;5039269;28;20060;-89
2023/04/05 01:39:06;;;;;;;6.80;4.07;;;;;;;;;;5038003;28;20051;-89
2023/04/05 01:41:33;;;;;;;10.10;4.65;;;;;;;;;;5038130;28;20040;-91
2023/04/05 01:43:59;;;;;;;10.98;4.38;;;;;;;;;;5039043;28;20021;-90
2023/04/05 01:46:25;;;;;;;8.25;4.55;;;;;;;;;;5038905;28;20025;-88
2023/04/05 01:48:51;;;;;;;10.55;4.78;;;;;;;;;;5038936;28;20087;-89
2023/04/05 01:51:18;;;;;;;7.97;4.45;;;;;;;;;;5038658;28;20037;-89
2023/04/05 01:53:44;;;;;;;9.35;4.50;;;;;;;;;;5039023;28;20040;-89
2023/04/05 01:56:10;;;;;;;11.30;5.13;;;;;;;;;;5038844;28;20025;-90
2023/04/05 01:58:37;;;;;;;8.38;4.18;;;;;;;;;;5037477;28;20330;-88
2023/04/05 02:04:07;;;;;;;11.18;5.40;;;;;;;;;;5023027;28;20172;-89
2023/04/05 02:06:33;;;;;;;8.60;4.60;;;;;;;;;;5038584;28;20056;-89
2023/04/05 02:08:59;;;;;;;8.43;4.43;;;;;;;;;;5038135;28;20037;-88
2023/04/05 02:11:25;;;;;;;9.10;4.25;;;;;;;;;;5039408;28;20029;-89
2023/04/05 02:13:51;;;;;;;5.90;3.55;;;;;;;;;;5055196;28;20033;-89
2023/04/05 02:16:17;;;;;;;8.18;4.32;;;;;;;;;;5038592;28;20115;-90
2023/04/05 02:18:49;;;;;;;9.68;5.45;;;;;;;;;;5038384;28;20026;-88
2023/04/05 02:21:16;;;;;;;6.53;4.10;;;;;;;;;;5051154;28;20423;-89
2023/04/05 02:23:42;;;;;;;8.82;4.50;;;;;;;;;;5058372;28;20033;-89
2023/04/05 02:26:08;;;;;;;8.80;4.10;;;;;;;;;;5047467;28;20089;-89
2023/04/05 02:28:34;;;;;;;5.95;3.97;;;;;;;;;;5040998;28;20395;-88
2023/04/05 02:37:35;;;;;;;5.85;3.60;;;;;;;;;;5037950;28;20052;-88
2023/04/05 02:40:04;;;;;;;5.72;3.70;;;;;;;;;;5038197;28;20038;-88
2023/04/05 02:42:30;;;;;;;8.55;3.85;;;;;;;;;;5037053;28;20113;-88
2023/04/05 02:44:56;;;;;;;5.93;3.90;;;;;;;;;;5038244;28;20053;-89
2023/04/05 02:50:26;;;;;;;7.82;3.65;;;;;;;;;;5037871;28;20378;-88
2023/04/05 02:52:52;;;;;;;6.90;4.60;;;;;;;;;;5046834;28;20057;-89
2023/04/05 02:55:18;;;;;;;6.90;4.07;;;;;;;;;;5053547;28;20029;-88
2023/04/05 02:57:44;;;;;;;14.55;6.30;;;;;;;;;;5038077;28;20109;-87
2023/04/05 03:00:11;;;;;;;54.35;17.02;;;;;;;;;;5052384;28;20033;-89
2023/04/05 03:05:42;;;;;;;13.35;7.03;;;;;;;;;;5024213;28;20063;-88
2023/04/05 03:08:08;;;;;;;9.90;4.93;;;;;;;;;;5049350;28;20033;-88
2023/04/05 03:10:37;;;;;;;9.13;4.65;;;;;;;;;;5037200;28;20022;-89
2023/04/05 03:13:03;;;;;;;11.98;4.93;;;;;;;;;;5053568;28;20029;-88
2023/04/05 03:15:32;;;;;;;10.27;5.18;;;;;;;;;;5042678;28;20061;-88
2023/04/05 03:17:58;;;;;;;12.30;6.18;;;;;;;;;;5017105;28;20038;-88
2023/04/05 03:20:24;;;;;;;13.35;6.72;;;;;;;;;;5038684;28;20045;-90
2023/04/05 03:22:51;;;;;;;10.80;5.95;;;;;;;;;;5037977;28;20033;-89
2023/04/05 03:25:17;;;;;;;7.97;5.10;;;;;;;;;;5037755;28;20027;-88
2023/04/05 03:27:44;;;;;;;11.88;5.57;;;;;;;;;;5036753;28;20041;-89
2023/04/05 03:30:10;;;;;;;7.53;5.53;;;;;;;;;;5037418;28;20339;-89
2023/04/05 03:32:36;;;;;;;9.75;6.63;;;;;;;;;;5045986;28;20029;-89
2023/04/05 03:35:03;;;;;;;10.77;6.00;;;;;;;;;;5054119;28;20032;-89
2023/04/05 03:37:29;;;;;;;10.95;6.88;;;;;;;;;;5037249;28;20025;-88
2023/04/05 03:39:55;;;;;;;12.30;6.15;;;;;;;;;;5036208;28;20029;-89
2023/04/05 03:42:21;;;;;;;9.60;6.45;;;;;;;;;;5036738;28;20038;-89
2023/04/05 03:44:50;;;;;;;10.82;5.88;;;;;;;;;;5037328;28;20028;-88
2023/04/05 03:47:16;;;;;;;13.95;6.20;;;;;;;;;;5037472;28;20033;-89
2023/04/05 03:49:42;;;;;;;9.00;5.80;;;;;;;;;;5037456;28;20029;-89
2023/04/05 03:52:08;;;;;;;12.25;6.55;;;;;;;;;;5050869;28;20107;-88
2023/04/05 03:54:34;;;;;;;10.48;5.75;;;;;;;;;;5057418;28;20029;-87
2023/04/05 03:57:01;;;;;;;14.10;7.28;;;;;;;;;;5055757;28;20060;-87
2023/04/05 03:59:27;;;;;;;12.52;6.88;;;;;;;;;;5057486;28;20040;-88
2023/04/05 04:05:20;;;;;;;13.60;6.38;;;;;;;;;;5033425;28;20084;-88
2023/04/05 04:07:47;;;;;;;11.55;6.22;;;;;;;;;;5017581;28;20037;-88
2023/04/05 04:10:15;;;;;;;10.00;5.85;;;;;;;;;;5016328;28;20029;-88
2023/04/05 04:12:41;;;;;;;11.05;6.45;;;;;;;;;;5016426;28;20120;-87
2023/04/05 04:15:08;;;;;;;11.02;6.20;;;;;;;;;;5017318;28;20022;-88
2023/04/05 04:17:34;;;;;;;13.18;6.68;;;;;;;;;;5016239;28;20064;-88
2023/04/05 04:20:01;;;;;;;12.15;6.18;;;;;;;;;;5017375;28;20068;-88
2023/04/05 04:22:32;;;;;;;13.82;6.03;;;;;;;;;;5017531;28;20105;-88
2023/04/05 04:25:03;;;;;;;10.20;5.93;;;;;;;;;;5020681;28;20018;-87
2023/04/05 04:27:34;;;;;;;11.05;6.30;;;;;;;;;;5020550;28;20113;-87
2023/04/05 04:30:03;;;;;;;10.73;6.50;;;;;;;;;;5020436;28;20022;-87
2023/04/05 04:39:06;;;;;;;11.50;6.85;;;;;;;;;;5020475;28;20089;-88
2023/04/05 04:41:32;;;;;;;14.93;6.78;;;;;;;;;;5019712;28;20034;-88
2023/04/05 04:44:02;;;;;;;9.82;6.07;;;;;;;;;;5019553;28;20028;-86
2023/04/05 04:49:31;;;;;;;9.55;6.05;;;;;;;;;;5020064;28;20041;-87
2023/04/05 04:51:58;;;;;;;9.35;6.15;;;;;;;;;;5019331;28;20050;-87
2023/04/05 04:54:24;;;;;;;10.70;5.70;;;;;;;;;;5020161;28;20036;-88
2023/04/05 04:56:50;;;;;;;11.07;6.13;;;;;;;;;;5019362;28;20096;-88
2023/04/05 04:59:17;;;;;;;11.05;6.55;;;;;;;;;;5019887;28;20416;-88
2023/04/05 05:01:46;;;;;;;11.02;7.10;;;;;;;;;;5019130;28;20117;-88
2023/04/05 05:04:12;;;;;;;10.75;5.97;;;;;;;;;;5020161;28;20030;-87
2023/04/05 05:06:38;;;;;;;11.73;6.13;;;;;;;;;;5030417;28;20348;-88
2023/04/05 05:09:05;;;;;;;12.43;6.40;;;;;;;;;;5039805;28;20034;-86
2023/04/05 05:11:31;;;;;;;9.07;5.75;;;;;;;;;;5038190;28;20033;-87
2023/04/05 05:13:58;;;;;;;10.05;5.53;;;;;;;;;;5038645;28;20037;-87
2023/04/05 05:19:27;;;;;;;13.32;6.20;;;;;;;;;;5039744;28;20109;-87
2023/04/05 05:21:54;;;;;;;15.13;7.05;;;;;;;;;;5039483;28;20018;-87
2023/04/05 05:24:20;;;;;;;11.30;6.28;;;;;;;;;;5039665;28;20029;-88
2023/04/05 05:26:46;;;;;;;11.77;6.25;;;;;;;;;;5039655;28;20030;-87
2023/04/05 05:29:12;;;;;;;9.98;5.55;;;;;;;;;;5039232;28;20033;-87
2023/04/05 05:35:19;;;;;;;9.85;5.68;;;;;;;;;;5039052;28;20144;-88
2023/04/05 05:37:45;;;;;;;8.63;5.32;;;;;;;;;;5038932;28;20359;-88
2023/04/05 05:40:12;;;;;;;11.73;5.78;;;;;;;;;;5039302;28;20072;-88
2023/04/05 05:42:38;;;;;;;10.32;6.22;;;;;;;;;;5039203;28;20026;-88
2023/04/05 05:45:05;;;;;;;12.13;6.60;;;;;;;;;;5038035;28;20483;-91
2023/04/05 05:50:53;;;;;;;9.88;5.85;;;;;;;;;;5038999;28;20065;-87
2023/04/05 05:53:19;;;;;;;12.40;6.15;;;;;;;;;;5037483;28;20077;-87
2023/04/05 05:55:46;;;;;;;11.93;5.90;;;;;;;;;;5037872;28;20025;-87
2023/04/05 05:58:12;;;;;;;9.80;6.13;;;;;;;;;;5038794;28;20108;-87
2023/04/05 06:00:38;;;;;;;10.45;5.97;;;;;;;;;;5039263;28;20047;-87
2023/04/05 06:03:04;;;;;;;8.88;5.90;;;;;;;;;;5038706;28;20028;-87
2023/04/05 06:05:31;;;;;;;9.57;6.07;;;;;;;;;;5038333;28;20419;-88
2023/04/05 06:07:57;;;;;;;11.48;6.35;;;;;;;;;;5037244;28;20050;-88
2023/04/05 06:10:24;;;;;;;14.40;6.60;;;;;;;;;;5038543;28;20036;-87
2023/04/05 06:12:50;;;;;;;10.80;5.95;;;;;;;;;;5037518;28;20438;-87
2023/04/05 06:15:16;;;;;;;9.73;6.05;;;;;;;;;;5038485;28;20025;-87
2023/04/05 06:20:46;;;;;;;10.82;6.30;;;;;;;;;;5038638;28;20036;-87
2023/04/05 06:23:12;;;;;;;12.95;6.60;;;;;;;;;;5038642;28;20022;-87
2023/04/05 06:25:39;;;;;;;18.98;8.57;;;;;;;;;;5038519;28;20032;-87
2023/04/05 06:28:05;;;;;;;14.48;8.07;;;;;;;;;;5038255;28;20025;-87
2023/04/05 06:30:32;;;;;;;18.92;8.18;;;;;;;;;;5037436;28;20031;-87
2023/04/05 06:43:02;;;;;;;12.85;6.13;;;;;;;;;;5038302;28;20032;-87
2023/04/05 06:45:28;;;;;;;12.90;6.35;;;;;;;;;;5037452;28;20423;-87
2023/04/05 06:47:54;;;;;;;11.55;6.70;;;;;;;;;;5036760;28;20036;-87
2023/04/05 06:50:20;;;;;;;10.27;5.68;;;;;;;;;;5037944;28;20057;-87
2023/04/05 06:52:46;;;;;;;12.38;6.28;;;;;;;;;;5037013;28;20072;-87
2023/04/05 06:55:12;;;;;;;11.52;5.95;;;;;;;;;;5036885;28;20029;-87
2023/04/05 06:57:38;;;;;;;16.13;7.60;;;;;;;;;;5037110;28;20104;-88
2023/04/05 07:00:09;;;;;;;15.52;7.25;;;;;;;;;;5038068;28;20351;-87
2023/04/05 07:02:35;;;;;;;12.50;7.05;;;;;;;;;;5036903;28;20025;-86
2023/04/05 07:05:04;;;;;;;10.15;5.72;;;;;;;;;;5037466;28;20037;-87
2023/04/05 07:07:34;;;;;;;12.43;6.82;;;;;;;;;;5037414;28;20056;-87
2023/04/05 07:10:00;;;;;;;13.02;6.70;;;;;;;;;;5037644;28;20105;-87
2023/04/05 07:12:26;;;;;;;10.27;6.30;;;;;;;;;;5036564;28;20068;-87
2023/04/05 07:14:52;;;;;;;11.73;6.65;;;;;;;;;;5037342;28;20056;-87
2023/04/05 07:17:18;;;;;;;10.70;6.15;;;;;;;;;;5037175;28;20022;-86
2023/04/05 07:19:44;;;;;;;9.40;6.07;;;;;;;;;;5037776;28;20071;-86
2023/04/05 07:22:10;;;;;;;10.70;5.40;;;;;;;;;;5037008;28;20033;-87
2023/04/05 07:24:36;;;;;;;10.90;6.10;;;;;;;;;;5036400;28;20029;-87
2023/04/05 07:27:02;;;;;;;11.27;6.10;;;;;;;;;;5037386;28;20032;-87
2023/04/05 07:29:29;;;;;;;9.45;5.72;;;;;;;;;;5037462;28;20028;-88
2023/04/05 07:38:02;;;;;;;11.95;5.80;;;;;;;;;;5037319;28;20481;-87
2023/04/05 07:40:28;;;;;;;15.27;5.97;;;;;;;;;;5036437;28;20068;-87
2023/04/05 07:42:54;;;;;;;9.07;5.88;;;;;;;;;;5037022;28;20028;-88
2023/04/05 07:45:20;;;;;;;10.90;5.88;;;;;;;;;;5037567;28;20022;-87
2023/04/05 07:48:02;;;;;;;15.05;6.80;;;;;;;;;;5037504;28;20042;-86
2023/04/05 07:50:28;;;;;;;12.63;7.47;;;;;;;;;;5036011;28;20021;-87
2023/04/05 07:52:54;;;;;;;15.18;7.13;;;;;;;;;;5036639;28;20033;-87
2023/04/05 07:55:20;;;;;;;13.10;6.82;;;;;;;;;;5036312;28;20061;-87
2023/04/05 07:57:46;;;;;;;12.02;7.05;;;;;;;;;;5039392;28;20067;-88
2023/04/05 08:00:12;;;;;;;12.75;6.47;;;;;;;;;;5039984;28;20076;-86
2023/04/05 08:09:18;;;;;;;11.93;6.07;;;;;;;;;;5018224;28;21147;-86
2023/04/05 08:11:44;;;;;;;11.05;6.15;;;;;;;;;;5040162;28;20424;-87
2023/04/05 08:14:10;;;;;;;11.93;6.65;;;;;;;;;;5040168;28;20120;-87
2023/04/05 08:16:36;;;;;;;10.15;6.07;;;;;;;;;;5039740;28;20415;-86
2023/04/05 08:19:27;;;;;;;10.25;6.38;;;;;;;;;;5040587;28;20076;-86
2023/04/05 08:21:53;;;;;;;10.15;6.10;;;;;;;;;;5039597;28;20021;-86
2023/04/05 08:24:19;;;;;;;10.48;6.10;;;;;;;;;;5039083;28;20032;-86
2023/04/05 08:26:45;;;;;;;9.75;5.85;;;;;;;;;;5040734;28;20060;-87
2023/04/05 08:29:11;;;;;;;10.55;6.53;;;;;;;;;;5040671;28;20029;-87
2023/04/05 08:31:37;;;;;;;9.40;6.15;;;;;;;;;;5040660;28;20064;-86
2023/04/05 08:37:07;;;;;;;12.68;6.70;;;;;;;;;;5040451;28;20079;-87
2023/04/05 08:39:36;;;;;;;10.05;6.07;;;;;;;;;;5040675;28;20029;-86
2023/04/05 08:42:05;;;;;;;10.32;5.47;;;;;;;;;;5039165;28;20037;-87
2023/04/05 08:44:32;;;;;;;12.65;6.80;;;;;;;;;;5040213;28;20104;-87
2023/04/05 08:46:59;;;;;;;11.68;6.32;;;;;;;;;;5040332;28;20399;-86
2023/04/05 08:49:25;;;;;;;10.23;6.15;;;;;;;;;;5040331;28;20026;-86
2023/04/05 08:51:51;;;;;;;14.57;7.18;;;;;;;;;;5039044;28;20412;-87
2023/04/05 08:54:17;;;;;;;8.50;5.60;;;;;;;;;;5038940;28;20443;-86
2023/04/05 08:56:46;;;;;;;10.80;6.57;;;;;;;;;;5038964;28;20079;-86
2023/04/05 08:59:12;;;;;;;13.80;6.68;;;;;;;;;;5039240;28;20077;-86
2023/04/05 09:01:41;;;;;;;13.48;7.05;;;;;;;;;;5038892;28;20021;-86
2023/04/05 09:04:23;;;;;;;11.13;6.32;;;;;;;;;;5038787;28;20466;-85
2023/04/05 09:06:49;;;;;;;9.75;6.00;;;;;;;;;;5039686;28;20091;-86
2023/04/05 09:09:16;;;;;;;8.85;6.28;;;;;;;;;;5039046;28;20035;-86
2023/04/05 09:11:43;;;;;;;12.20;6.30;;;;;;;;;;5038557;28;20096;-86
2023/04/05 09:14:10;;;;;;;12.43;6.18;;;;;;;;;;5038539;28;20415;-86
2023/04/05 09:16:37;;;;;;;11.02;6.63;;;;;;;;;;5039220;28;20365;-89
2023/04/05 09:19:03;;;;;;;12.10;6.70;;;;;;;;;;5039499;28;20057;-90
2023/04/05 09:21:29;;;;;;;12.02;6.00;;;;;;;;;;5038331;28;20055;-86
2023/04/05 09:23:55;;;;;;;12.07;6.10;;;;;;;;;;5038529;28;20022;-87
2023/04/05 09:26:25;;;;;;;12.48;6.30;;;;;;;;;;5039097;28;20028;-87
2023/04/05 09:28:51;;;;;;;15.10;8.38;;;;;;;;;;5038396;28;20128;-87
2023/04/05 09:31:33;;;;;;;21.25;10.60;;;;;;;;;;5039322;28;20036;-88
2023/04/05 09:34:02;;;;;;;11.10;6.65;;;;;;;;;;5039532;28;20025;-88
2023/04/05 09:36:28;;;;;;;13.85;6.70;;;;;;;;;;5039295;28;20415;-87
2023/04/05 09:39:04;;;;;;;8.55;5.75;;;;;;;;;;5038166;28;20428;-87
2023/04/05 09:41:30;;;;;;;16.80;8.50;;;;;;;;;;5038172;28;20116;-87
2023/04/05 09:43:56;;;;;;;12.25;6.25;;;;;;;;;;5038266;28;20037;-88
2023/04/05 09:46:30;;;;;;;11.15;5.80;;;;;;;;;;5038294;28;20064;-86
2023/04/05 09:48:56;;;;;;;11.45;5.53;;;;;;;;;;5039165;28;20032;-89
2023/04/05 09:51:22;;;;;;;10.40;5.00;;;;;;;;;;5038216;28;20040;-88
2023/04/05 09:54:05;;;;;;;7.40;4.90;;;;;;;;;;5038917;28;20407;-87
2023/04/05 09:56:33;;;;;;;22.05;9.80;;;;;;;;;;5039084;28;20030;-87
2023/04/05 09:59:05;;;;;;;11.50;5.93;;;;;;;;;;5039139;28;20040;-88
2023/04/05 10:01:31;;;;;;;;;;;;;;;;;;5038242;28;20021;-87
2023/04/05 10:07:01;;;;;;;9.98;5.38;;;;;;;;;;5038584;28;20033;-86
2023/04/05 10:09:27;;;;;;;13.00;5.20;;;;;;;;;;5038619;28;20089;-87
2023/04/05 10:11:53;;;;;;;13.45;5.35;;;;;;;;;;5037621;28;20140;-87
2023/04/05 10:14:19;;;;;;;11.00;7.07;;;;;;;;;;5037615;28;20043;-87
2023/04/05 10:17:09;;;;;;;30.88;14.35;;;;;;;;;;5037570;28;20419;-87
2023/04/05 10:19:45;;;;;;;28.45;14.02;;;;;;;;;;5038398;28;20035;-87
2023/04/05 10:22:14;;;;;;;15.77;8.55;;;;;;;;;;5038578;28;20021;-85
2023/04/05 10:24:45;;;;;;;17.33;8.32;;;;;;;;;;5038239;28;20315;-86
2023/04/05 10:27:21;;;;;;;12.70;7.63;;;;;;;;;;5038483;28;20017;-86
2023/04/05 10:29:47;;;;;;;30.50;15.63;;;;;;;;;;5038379;28;20025;-86
2023/04/05 10:32:18;;;;;;;23.48;11.02;;;;;;;;;;5038295;28;20502;-88
2023/04/05 10:35:08;;;;;;;8.77;5.55;;;;;;;;;;5037913;28;20029;-88
2023/04/05 10:37:37;;;;;;;10.15;6.18;;;;;;;;;;5038020;28;20048;-87
2023/04/05 10:40:06;;;;;;;11.85;6.80;;;;;;;;;;5037915;28;20030;-87
2023/04/05 10:42:42;;;;;;;15.48;7.00;;;;;;;;;;5038228;28;20021;-87
2023/04/05 10:45:11;;;;;;;12.55;5.72;;;;;;;;;;5038228;28;20030;-87
2023/04/05 10:47:58;;;;;;;12.15;7.18;;;;;;;;;;5038120;28;20043;-87
2023/04/05 10:50:24;;;;;;;30.67;13.82;;;;;;;;;;5037825;28;20021;-88
2023/04/05 10:52:52;;;;;;;34.63;15.77;;;;;;;;;;5036899;28;20032;-87
2023/04/05 10:55:19;;;;;;;26.50;11.10;;;;;;;;;;5037016;28;20106;-87
2023/04/05 10:57:46;;;;;;;33.25;12.80;;;;;;;;;;5038171;28;20025;-87
2023/04/05 11:00:12;;;;;;;29.65;13.23;;;;;;;;;;5036889;28;20026;-87
2023/04/05 11:02:40;;;;;;;12.95;6.82;;;;;;;;;;5037922;28;20394;-87
2023/04/05 11:05:06;;;;;;;17.15;8.73;;;;;;;;;;5036815;28;20018;-87
2023/04/05 11:07:43;;;;;;;11.18;6.03;;;;;;;;;;5036757;28;20036;-87
2023/04/05 11:10:16;;;;;;;14.05;6.40;;;;;;;;;;5037569;28;20392;-87
2023/04/05 11:12:45;;;;;;;24.33;9.93;;;;;;;;;;5036935;28;20045;-87
2023/04/05 11:15:27;;;;;;;13.85;7.32;;;;;;;;;;5037552;28;20434;-87
2023/04/05 11:18:06;;;;;;;47.78;18.25;;;;;;;;;;5037485;28;20059;-84
2023/04/05 11:20:46;;;;;;;16.73;7.28;;;;;;;;;;5036992;28;20029;-89
2023/04/05 11:23:17;;;;;;;15.88;9.30;;;;;;;;;;5037850;28;20025;-89
2023/04/05 11:25:47;;;;;;;15.98;8.00;;;;;;;;;;5037163;28;20025;-88
2023/04/05 11:28:23;;;;;;;12.95;7.13;;;;;;;;;;5036749;28;20035;-88
2023/04/05 11:30:57;;;;;;;11.93;7.18;;;;;;;;;;5037381;28;20044;-88
2023/04/05 11:36:31;;;;;;;15.90;7.53;;;;;;;;;;5041461;28;20041;-88
2023/04/05 11:39:15;;;;;;;13.07;7.72;;;;;;;;;;5040769;28;20072;-88
2023/04/05 11:41:41;;;;;;;9.90;6.53;;;;;;;;;;5040692;28;20029;-88
2023/04/05 11:44:13;;;;;;;9.40;5.90;;;;;;;;;;5042122;28;20022;-87
2023/04/05 11:46:41;;;;;;;11.15;6.68;;;;;;;;;;5042121;28;20026;-89
2023/04/05 11:49:07;;;;;;;14.10;6.53;;;;;;;;;;5041720;28;20029;-91
2023/04/05 11:51:33;;;;;;;14.10;6.55;;;;;;;;;;5041006;28;20028;-88
2023/04/05 11:53:59;;;;;;;12.85;6.65;;;;;;;;;;5040264;28;20021;-88
2023/04/05 11:56:25;;;;;;;14.60;6.88;;;;;;;;;;5041143;28;20029;-88
2023/04/05 11:58:51;;;;;;;11.57;6.43;;;;;;;;;;5041294;28;20113;-89
2023/04/05 12:01:17;;;;;;;11.38;6.00;;;;;;;;;;5040178;28;20021;-89
2023/04/05 12:06:47;;;;;;;12.02;6.65;;;;;;;;;;5031379;28;20033;-89
2023/04/05 12:09:13;;;;;;;25.65;10.32;;;;;;;;;;5033502;28;20482;-89
2023/04/05 12:11:40;;;;;;;13.85;6.30;;;;;;;;;;5039636;28;20419;-89
2023/04/05 12:14:06;;;;;;;11.73;6.68;;;;;;;;;;5040754;28;20320;-89
2023/04/05 12:16:32;;;;;;;20.13;7.85;;;;;;;;;;5040652;28;20426;-89
2023/04/05 12:19:16;;;;;;;33.78;12.45;;;;;;;;;;5039742;28;20188;-89
2023/04/05 12:21:42;;;;;;;20.75;7.75;;;;;;;;;;5040122;28;20116;-89
2023/04/05 12:24:09;;;;;;;13.82;5.22;;;;;;;;;;5040806;28;20083;-90
2023/04/05 12:26:35;;;;;;;46.72;16.77;;;;;;;;;;5039674;28;20036;-88
2023/04/05 12:29:03;;;;;;;32.58;12.88;;;;;;;;;;5040424;28;20079;-88
2023/04/05 12:31:35;;;;;;;36.28;14.00;;;;;;;;;;5040675;28;20021;-89
2023/04/05 12:34:01;;;;;;;20.48;8.88;;;;;;;;;;5040860;28;20028;-89
2023/04/05 12:36:27;;;;;;;17.90;6.95;;;;;;;;;;5040501;28;20041;-88
2023/04/05 12:38:56;;;;;;;17.73;9.82;;;;;;;;;;5039196;28;20370;-88
2023/04/05 12:41:29;;;;;;;11.32;6.53;;;;;;;;;;5040518;28;20028;-88
2023/04/05 12:44:01;;;;;;;11.65;6.25;;;;;;;;;;5037987;28;20044;-88
2023/04/05 12:46:46;;;;;;;21.15;7.40;;;;;;;;;;5039901;28;20068;-88
2023/04/05 12:52:20;;;;;;;13.23;6.90;;;;;;;;;;5040149;28;20056;-88
2023/04/05 12:54:53;;;;;;;11.98;6.35;;;;;;;;;;5039980;28;20052;-88
2023/04/05 12:57:27;;;;;;;11.32;5.68;;;;;;;;;;5040120;28;20032;-88
2023/04/05 12:59:53;;;;;;;11.65;5.60;;;;;;;;;;5020174;28;20063;-88
2023/04/05 13:02:20;;;;;;;17.45;8.05;;;;;;;;;;5027948;28;20041;-88
2023/04/05 13:05:04;;;;;;;44.38;15.40;;;;;;;;;;5039528;28;20021;-87
2023/04/05 13:07:30;;;;;;;51.78;17.33;;;;;;;;;;5038717;28;20033;-86
2023/04/05 13:09:56;;;;;;;28.05;9.60;;;;;;;;;;5039553;28;20447;-87
2023/04/05 13:12:22;;;;;;;32.30;11.27;;;;;;;;;;5039503;28;20033;-87
2023/04/05 13:14:48;;;;;;;44.22;15.10;;;;;;;;;;5039673;28;20017;-87
2023/04/05 13:17:14;;;;;;;50.55;17.92;;;;;;;;;;5039867;28;20022;-87
2023/04/05 13:19:40;;;;;;;14.68;6.88;;;;;;;;;;5039483;28;20056;-87
2023/04/05 13:22:06;;;;;;;12.32;6.05;;;;;;;;;;5039525;28;20033;-87
2023/04/05 13:24:32;;;;;;;12.88;5.47;;;;;;;;;;5039395;28;20022;-87
2023/04/05 13:26:59;;;;;;;15.30;6.35;;;;;;;;;;5038445;28;20035;-85
2023/04/05 13:29:25;;;;;;;18.45;8.75;;;;;;;;;;5038440;28;20022;-87
2023/04/05 13:31:51;;;;;;;10.50;6.07;;;;;;;;;;5038427;28;20443;-87
2023/04/05 13:34:17;;;;;;;8.52;4.68;;;;;;;;;;5039168;28;20022;-87
2023/04/05 13:36:43;;;;;;;8.30;4.65;;;;;;;;;;5039034;28;20304;-87
2023/04/05 13:39:09;;;;;;;12.70;6.05;;;;;;;;;;5038435;28;20410;-86
2023/04/05 13:41:35;;;;;;;17.60;8.15;;;;;;;;;;5039207;28;20041;-87
2023/04/05 13:44:02;;;;;;;16.23;7.20;;;;;;;;;;5038189;28;20025;-86
2023/04/05 13:46:28;;;;;;;37.90;15.63;;;;;;;;;;5038992;28;20408;-87
2023/04/05 14:02:54;;;;;;;9.70;5.45;;;;;;;;;;5019273;28;20041;-87
2023/04/05 14:08:23;;;;;;;15.27;6.78;;;;;;;;;;5019150;28;20045;-87
2023/04/05 14:10:50;;;;;;;10.77;5.88;;;;;;;;;;5031627;28;20064;-86
2023/04/05 14:13:16;;;;;;;9.05;6.00;;;;;;;;;;5037583;28;20033;-87
2023/04/05 14:15:42;;;;;;;16.10;7.78;;;;;;;;;;5037707;28;20036;-87
2023/04/05 14:18:08;;;;;;;14.68;6.95;;;;;;;;;;5037298;28;20048;-86
2023/04/05 14:20:34;;;;;;;11.00;5.95;;;;;;;;;;5037904;28;20116;-86
2023/04/05 14:23:01;;;;;;;25.83;10.82;;;;;;;;;;5038224;28;20044;-86
2023/04/05 14:25:27;;;;;;;15.93;7.43;;;;;;;;;;5038275;28;20033;-88
2023/04/05 14:27:53;;;;;;;13.23;6.78;;;;;;;;;;5038245;28;20022;-87
2023/04/05 14:30:19;;;;;;;20.45;9.25;;;;;;;;;;5038071;28;20339;-88
2023/04/05 14:32:45;;;;;;;11.77;7.32;;;;;;;;;;5037077;28;20026;-88
2023/04/05 14:35:20;;;;;;;12.10;7.45;;;;;;;;;;5038410;28;20067;-87
2023/04/05 14:37:46;;;;;;;16.08;7.95;;;;;;;;;;5038130;28;20044;-87
2023/04/05 14:40:12;;;;;;;13.02;6.90;;;;;;;;;;5037239;28;20029;-87
2023/04/05 14:42:38;;;;;;;12.43;6.10;;;;;;;;;;5038087;28;20397;-87
2023/04/05 14:45:04;;;;;;;15.40;7.68;;;;;;;;;;5038308;28;20032;-87
2023/04/05 14:47:30;;;;;;;33.72;14.75;;;;;;;;;;5037573;28;20087;-87
2023/04/05 14:53:33;;;;;;;52.63;20.50;;;;;;;;;;5038129;28;20058;-88
2023/04/05 14:55:59;;;;;;;54.35;22.50;;;;;;;;;;5037654;28;20026;-87
2023/04/05 14:58:27;;;;;;;34.45;15.23;;;;;;;;;;5037807;28;20030;-87
2023/04/05 15:00:55;;;;;;;22.23;10.40;;;;;;;;;;5037936;28;20030;-86
2023/04/05 15:03:21;;;;;;;43.88;17.73;;;;;;;;;;5038043;28;20113;-86
2023/04/05 15:06:06;;;;;;;41.35;17.40;;;;;;;;;;5037662;28;20109;-86
2023/04/05 15:08:32;;;;;;;44.88;19.42;;;;;;;;;;5036839;28;20080;-86
2023/04/05 15:10:58;;;;;;;22.20;10.15;;;;;;;;;;5037637;28;20041;-86
2023/04/05 15:13:25;;;;;;;28.67;12.30;;;;;;;;;;5036869;28;20068;-86
2023/04/05 15:15:51;;;;;;;23.83;10.07;;;;;;;;;;5037547;28;20414;-86
2023/04/05 15:18:17;;;;;;;35.08;15.27;;;;;;;;;;5037607;28;20037;-85
2023/04/05 15:20:44;;;;;;;37.35;15.05;;;;;;;;;;5037740;28;20061;-84
2023/04/05 15:23:10;;;;;;;27.52;11.70;;;;;;;;;;5037760;28;20411;-86
2023/04/05 15:25:36;;;;;;;24.95;12.77;;;;;;;;;;5037499;28;20030;-86
2023/04/05 15:28:03;;;;;;;16.83;7.85;;;;;;;;;;5037336;28;20022;-85
2023/04/05 15:30:31;;;;;;;10.75;6.72;;;;;;;;;;5036558;28;20029;-86
2023/04/05 15:32:57;;;;;;;11.50;6.35;;;;;;;;;;5037390;28;20068;-85
2023/04/05 15:35:23;;;;;;;12.05;6.50;;;;;;;;;;5037470;28;20030;-85
2023/04/05 15:37:50;;;;;;;8.60;5.47;;;;;;;;;;5037317;28;20067;-86
2023/04/05 15:40:16;;;;;;;9.05;4.95;;;;;;;;;;5037119;28;20018;-86
2023/04/05 15:42:42;;;;;;;41.22;12.80;;;;;;;;;;5037409;28;20068;-87
2023/04/05 15:45:08;;;;;;;38.95;13.93;;;;;;;;;;5037175;28;20053;-86
2023/04/05 15:47:34;;;;;;;95.88;29.40;;;;;;;;;;5037369;28;20307;-86
2023/04/05 15:50:00;;;;;;;66.00;22.05;;;;;;;;;;5037464;28;20040;-86
2023/04/05 15:52:26;;;;;;;50.58;18.40;;;;;;;;;;5037512;28;20017;-86
2023/04/05 15:54:52;;;;;;;23.15;9.68;;;;;;;;;;5037510;28;20026;-85
2023/04/05 15:57:18;;;;;;;16.27;7.95;;;;;;;;;;5037148;28;20025;-86
2023/04/05 15:59:45;;;;;;;13.63;5.82;;;;;;;;;;5037025;28;20053;-86
2023/04/05 16:02:11;;;;;;;8.10;4.72;;;;;;;;;;5037231;28;20025;-85
2023/04/05 16:04:38;;;;;;;8.93;5.40;;;;;;;;;;5037448;28;20033;-86
2023/04/05 16:07:05;;;;;;;9.07;5.45;;;;;;;;;;5036271;28;20029;-87
2023/04/05 16:09:31;;;;;;;10.65;5.68;;;;;;;;;;5035874;28;20042;-86
2023/04/05 16:11:58;;;;;;;24.88;12.75;;;;;;;;;;5036473;28;20120;-87
2023/04/05 16:14:24;;;;;;;34.92;15.95;;;;;;;;;;5039117;28;20040;-87
2023/04/05 16:16:51;;;;;;;46.03;20.48;;;;;;;;;;5055890;28;20025;-85
2023/04/05 16:19:17;;;;;;;36.20;17.85;;;;;;;;;;5042522;28;20030;-85
2023/04/05 16:21:43;;;;;;;34.45;17.05;;;;;;;;;;5040725;28;20037;-85